Time;durP1;ratioP1;P1;durP2;ratioP2;P2;SDS_P1;SDS_P2;PMS_P1;PMS_P2;Temp;Humidity;BMP_temperature;BMP_pressure;BME280_temperature;BME280_humidity;BME280_pressure;Samples;Min_cycle;Max_cycle;Signal;HPM_P1;HPM_P2
2023/11/20 00:00:42;;;;;;;14.53;3.03;;;;;;;;;;2609186;54;20418;-75
2023/11/20 00:03:08;;;;;;;9.13;2.33;;;;;;;;;;2608272;47;20418;-74
2023/11/20 00:05:34;;;;;;;11.23;2.30;;;;;;;;;;2608113;39;21298;-75
2023/11/20 00:08:00;;;;;;;4.93;2.00;;;;;;;;;;2607916;54;20539;-75
2023/11/20 00:10:26;;;;;;;4.77;1.97;;;;;;;;;;2608805;39;20898;-75
2023/11/20 00:12:52;;;;;;;7.00;3.80;;;;;;;;;;2608605;54;20482;-75
2023/11/20 00:15:19;;;;;;;9.40;2.60;;;;;;;;;;2608309;54;20426;-75
2023/11/20 00:17:47;;;;;;;3.50;2.37;;;;;;;;;;2608989;54;20431;-75
2023/11/20 00:20:13;;;;;;;7.20;2.97;;;;;;;;;;2608743;54;20435;-75
2023/11/20 00:22:39;;;;;;;4.57;3.40;;;;;;;;;;2608498;54;20427;-75
2023/11/20 00:25:05;;;;;;;6.33;2.30;;;;;;;;;;2608402;54;21282;-75
2023/11/20 00:27:31;;;;;;;4.87;2.80;;;;;;;;;;2608108;54;20414;-74
2023/11/20 00:29:57;;;;;;;10.03;3.40;;;;;;;;;;2608303;54;20415;-75
2023/11/20 00:32:23;;;;;;;7.67;2.37;;;;;;;;;;2607776;54;20558;-75
2023/11/20 00:34:49;;;;;;;5.40;1.53;;;;;;;;;;2608360;54;20524;-74
2023/11/20 00:37:18;;;;;;;7.80;2.90;;;;;;;;;;2608238;39;20815;-76
2023/11/20 00:39:44;;;;;;;7.73;3.27;;;;;;;;;;2608009;47;20408;-75
2023/11/20 00:42:10;;;;;;;4.70;1.97;;;;;;;;;;2609856;54;20432;-75
2023/11/20 00:44:36;;;;;;;7.17;2.13;;;;;;;;;;2607735;54;20423;-74
2023/11/20 00:47:02;;;;;;;9.47;2.30;;;;;;;;;;2609505;54;20420;-74
2023/11/20 00:49:28;;;;;;;11.87;3.20;;;;;;;;;;2607066;54;20427;-75
2023/11/20 00:51:55;;;;;;;3.13;2.20;;;;;;;;;;2608175;54;20420;-74
2023/11/20 00:54:21;;;;;;;9.60;1.80;;;;;;;;;;2610850;39;20776;-74
2023/11/20 00:56:47;;;;;;;6.80;2.13;;;;;;;;;;2607814;54;20430;-74
2023/11/20 00:59:13;;;;;;;10.43;2.60;;;;;;;;;;2609922;54;20497;-75
2023/11/20 01:01:39;;;;;;;7.23;3.23;;;;;;;;;;2609753;54;20434;-75
2023/11/20 01:04:05;;;;;;;5.13;1.83;;;;;;;;;;2610126;47;20419;-74
2023/11/20 01:06:32;;;;;;;8.63;2.30;;;;;;;;;;2610974;39;20844;-74
2023/11/20 01:08:58;;;;;;;4.90;1.27;;;;;;;;;;2609148;54;20424;-75
2023/11/20 01:11:24;;;;;;;8.60;3.00;;;;;;;;;;2610014;46;20423;-75
2023/11/20 01:13:50;;;;;;;3.70;2.37;;;;;;;;;;2610180;54;20505;-74
2023/11/20 01:16:16;;;;;;;4.33;1.93;;;;;;;;;;2610791;54;20423;-75
2023/11/20 01:18:44;;;;;;;2.80;1.23;;;;;;;;;;2610603;47;20527;-78
2023/11/20 01:21:10;;;;;;;3.80;1.70;;;;;;;;;;2610617;54;20427;-81
2023/11/20 01:23:36;;;;;;;4.57;2.10;;;;;;;;;;2610178;47;20415;-78
2023/11/20 01:26:03;;;;;;;6.83;2.53;;;;;;;;;;2610358;47;20513;-77
2023/11/20 01:28:30;;;;;;;8.33;3.20;;;;;;;;;;2610143;54;20404;-76
2023/11/20 01:30:56;;;;;;;7.47;1.40;;;;;;;;;;2610562;54;20389;-77
2023/11/20 01:33:22;;;;;;;3.17;1.13;;;;;;;;;;2608333;54;20523;-76
2023/11/20 01:35:49;;;;;;;7.07;2.47;;;;;;;;;;2607952;39;20834;-78
2023/11/20 01:38:16;;;;;;;8.70;3.00;;;;;;;;;;2608395;39;20605;-76
2023/11/20 01:40:43;;;;;;;9.13;1.80;;;;;;;;;;2608776;31;20869;-75
2023/11/20 01:43:09;;;;;;;3.60;2.00;;;;;;;;;;2607433;54;21069;-76
2023/11/20 01:45:35;;;;;;;4.33;2.70;;;;;;;;;;2608391;54;20418;-77
2023/11/20 01:48:01;;;;;;;7.00;2.43;;;;;;;;;;2608179;46;20408;-76
2023/11/20 01:50:28;;;;;;;6.30;2.23;;;;;;;;;;2609266;54;20431;-77
2023/11/20 01:52:54;;;;;;;7.77;2.17;;;;;;;;;;2610358;54;20472;-77
2023/11/20 01:55:20;;;;;;;7.10;2.47;;;;;;;;;;2608927;39;21111;-75
2023/11/20 01:57:49;;;;;;;10.13;2.73;;;;;;;;;;2608261;54;20415;-74
2023/11/20 02:00:16;;;;;;;9.53;2.80;;;;;;;;;;2609300;39;21028;-73
2023/11/20 02:02:43;;;;;;;7.47;3.50;;;;;;;;;;2609185;54;20391;-74
2023/11/20 02:05:10;;;;;;;9.30;2.87;;;;;;;;;;2608776;54;20487;-75
2023/11/20 02:07:37;;;;;;;7.00;3.37;;;;;;;;;;2608713;54;20423;-74
2023/11/20 02:10:04;;;;;;;4.10;1.80;;;;;;;;;;2608391;54;20392;-73
2023/11/20 02:12:30;;;;;;;4.53;2.43;;;;;;;;;;2609226;39;20797;-74
2023/11/20 02:14:56;;;;;;;10.23;3.00;;;;;;;;;;2607879;54;20503;-74
2023/11/20 02:17:23;;;;;;;6.20;2.30;;;;;;;;;;2608403;54;21080;-74
2023/11/20 02:19:49;;;;;;;6.63;2.10;;;;;;;;;;2609072;39;20948;-73
2023/11/20 02:22:16;;;;;;;5.73;2.60;;;;;;;;;;2608555;47;20412;-75
2023/11/20 02:24:46;;;;;;;6.37;2.20;;;;;;;;;;2608425;54;20438;-75
2023/11/20 02:27:12;;;;;;;6.73;1.80;;;;;;;;;;2607930;54;20450;-73
2023/11/20 02:29:52;;;;;;;3.87;2.03;;;;;;;;;;2608591;54;20386;-74
2023/11/20 02:32:18;;;;;;;7.27;2.60;;;;;;;;;;2611309;54;20399;-74
2023/11/20 02:34:44;;;;;;;3.93;2.17;;;;;;;;;;2609958;39;20865;-73
2023/11/20 02:37:10;;;;;;;3.20;2.13;;;;;;;;;;2608430;47;20518;-73
2023/11/20 02:39:39;;;;;;;2.93;1.90;;;;;;;;;;2607854;54;20422;-75
2023/11/20 02:42:08;;;;;;;4.20;2.30;;;;;;;;;;2609363;39;20808;-73
2023/11/20 02:44:38;;;;;;;5.50;2.93;;;;;;;;;;2608569;47;20424;-75
2023/11/20 02:47:06;;;;;;;5.90;2.00;;;;;;;;;;2609455;54;20424;-74
2023/11/20 02:49:35;;;;;;;4.97;2.57;;;;;;;;;;2607613;54;20395;-73
2023/11/20 02:52:02;;;;;;;3.03;2.40;;;;;;;;;;2609134;54;20968;-74
2023/11/20 02:54:28;;;;;;;5.70;2.87;;;;;;;;;;2608577;54;20407;-74
2023/11/20 02:56:56;;;;;;;9.00;3.00;;;;;;;;;;2607910;54;20420;-74
2023/11/20 02:59:23;;;;;;;5.07;2.87;;;;;;;;;;2607974;39;20465;-72
2023/11/20 03:01:49;;;;;;;12.37;3.23;;;;;;;;;;2609482;39;20999;-74
2023/11/20 03:04:15;;;;;;;9.10;3.00;;;;;;;;;;2608089;54;20403;-73
2023/11/20 03:06:41;;;;;;;11.37;4.47;;;;;;;;;;2609444;54;21633;-74
2023/11/20 03:09:07;;;;;;;6.60;3.60;;;;;;;;;;2608216;54;20961;-74
2023/11/20 03:11:34;;;;;;;9.20;3.20;;;;;;;;;;2608293;47;20426;-74
2023/11/20 03:14:00;;;;;;;4.37;2.63;;;;;;;;;;2608634;54;20482;-75
2023/11/20 03:16:27;;;;;;;12.83;3.90;;;;;;;;;;2607895;54;20580;-75
2023/11/20 03:18:53;;;;;;;11.53;3.50;;;;;;;;;;2608195;54;20459;-75
2023/11/20 03:21:19;;;;;;;14.00;3.50;;;;;;;;;;2608616;54;20590;-76
2023/11/20 03:23:45;;;;;;;4.90;2.60;;;;;;;;;;2608966;54;20467;-74
2023/11/20 03:26:11;;;;;;;11.57;3.37;;;;;;;;;;2609310;54;20407;-75
2023/11/20 03:28:38;;;;;;;10.60;3.10;;;;;;;;;;2608043;47;20415;-73
2023/11/20 03:31:04;;;;;;;7.90;3.90;;;;;;;;;;2608787;39;20886;-74
2023/11/20 03:33:30;;;;;;;10.53;3.77;;;;;;;;;;2608935;54;20436;-74
2023/11/20 03:35:56;;;;;;;6.37;3.40;;;;;;;;;;2607697;54;20416;-74
2023/11/20 03:38:22;;;;;;;11.33;3.63;;;;;;;;;;2608223;54;21097;-74
2023/11/20 03:40:49;;;;;;;8.23;3.30;;;;;;;;;;2608973;54;20419;-74
2023/11/20 03:43:15;;;;;;;7.97;4.07;;;;;;;;;;2609195;54;20419;-74
2023/11/20 03:45:41;;;;;;;7.43;3.53;;;;;;;;;;2608645;54;20407;-73
2023/11/20 03:48:07;;;;;;;11.60;4.27;;;;;;;;;;2608319;54;20431;-73
2023/11/20 03:50:33;;;;;;;8.33;4.20;;;;;;;;;;2608955;54;20566;-74
2023/11/20 03:52:59;;;;;;;14.97;5.33;;;;;;;;;;2607098;47;20432;-74
2023/11/20 03:55:25;;;;;;;15.33;5.10;;;;;;;;;;2607682;47;20449;-75
2023/11/20 03:57:52;;;;;;;12.83;4.60;;;;;;;;;;2608451;54;20407;-72
2023/11/20 04:00:18;;;;;;;9.07;4.83;;;;;;;;;;2606898;39;20793;-73
2023/11/20 04:02:44;;;;;;;6.40;3.40;;;;;;;;;;2609135;54;22249;-74
2023/11/20 04:05:10;;;;;;;11.60;5.40;;;;;;;;;;2608895;46;20514;-75
2023/11/20 04:07:37;;;;;;;11.70;5.23;;;;;;;;;;2609512;54;20567;-74
2023/11/20 04:10:04;;;;;;;9.27;4.83;;;;;;;;;;2607259;54;20424;-73
2023/11/20 04:12:31;;;;;;;5.67;3.13;;;;;;;;;;2608208;54;20427;-74
2023/11/20 04:14:57;;;;;;;11.60;4.20;;;;;;;;;;2608169;54;20454;-74
2023/11/20 04:17:23;;;;;;;12.83;4.80;;;;;;;;;;2608619;54;20455;-73
2023/11/20 04:19:49;;;;;;;9.33;3.00;;;;;;;;;;2608660;54;20458;-74
2023/11/20 04:22:15;;;;;;;11.10;3.70;;;;;;;;;;2608512;46;20470;-75
2023/11/20 04:24:41;;;;;;;6.23;3.40;;;;;;;;;;2608920;54;20437;-75
2023/11/20 04:27:07;;;;;;;5.00;3.00;;;;;;;;;;2607692;54;20461;-75
2023/11/20 04:29:34;;;;;;;8.07;4.07;;;;;;;;;;2608314;54;20431;-74
2023/11/20 04:32:00;;;;;;;8.67;3.80;;;;;;;;;;2607676;54;20526;-74
2023/11/20 04:34:26;;;;;;;8.50;4.20;;;;;;;;;;2608051;47;20446;-74
2023/11/20 04:36:52;;;;;;;10.13;3.07;;;;;;;;;;2609232;46;20467;-74
2023/11/20 04:39:18;;;;;;;9.63;3.37;;;;;;;;;;2607845;54;20965;-74
2023/11/20 04:41:45;;;;;;;9.67;5.10;;;;;;;;;;2611686;54;20523;-75
2023/11/20 04:44:11;;;;;;;10.73;4.53;;;;;;;;;;2610040;54;20546;-74
2023/11/20 04:46:37;;;;;;;13.20;4.30;;;;;;;;;;2610265;54;20451;-74
2023/11/20 04:49:03;;;;;;;6.63;2.33;;;;;;;;;;2611559;54;20993;-75
2023/11/20 04:51:29;;;;;;;7.30;3.80;;;;;;;;;;2611943;39;20794;-75
2023/11/20 04:53:56;;;;;;;8.10;3.87;;;;;;;;;;2611872;54;20562;-75
2023/11/20 04:56:22;;;;;;;10.13;3.50;;;;;;;;;;2611135;54;20415;-74
2023/11/20 04:58:48;;;;;;;10.53;3.50;;;;;;;;;;2611182;46;20462;-74
2023/11/20 05:01:14;;;;;;;11.47;3.10;;;;;;;;;;2612393;54;20558;-74
2023/11/20 05:03:42;;;;;;;10.53;4.13;;;;;;;;;;2611371;47;20423;-75
2023/11/20 05:06:10;;;;;;;10.30;3.40;;;;;;;;;;2611043;54;20420;-74
2023/11/20 05:08:39;;;;;;;10.77;3.10;;;;;;;;;;2611063;54;20618;-75
2023/11/20 05:11:05;;;;;;;8.10;3.47;;;;;;;;;;2610720;54;20399;-74
2023/11/20 05:13:31;;;;;;;7.60;3.23;;;;;;;;;;2612207;39;20835;-73
2023/11/20 05:15:57;;;;;;;5.13;2.77;;;;;;;;;;2610650;47;20451;-73
2023/11/20 05:18:23;;;;;;;7.13;3.27;;;;;;;;;;2610758;54;20979;-75
2023/11/20 05:20:49;;;;;;;5.10;1.97;;;;;;;;;;2611397;54;20435;-73
2023/11/20 05:23:15;;;;;;;11.37;3.53;;;;;;;;;;2611485;54;20431;-74
2023/11/20 05:25:41;;;;;;;12.07;3.10;;;;;;;;;;2611540;54;20462;-74
2023/11/20 05:28:09;;;;;;;6.07;3.10;;;;;;;;;;2612272;54;20431;-73
2023/11/20 05:30:35;;;;;;;9.30;3.40;;;;;;;;;;2612697;39;21015;-74
2023/11/20 05:33:01;;;;;;;9.43;3.17;;;;;;;;;;2611766;54;20414;-74
2023/11/20 05:35:27;;;;;;;9.70;2.80;;;;;;;;;;2611546;54;20487;-74
2023/11/20 05:37:53;;;;;;;5.40;2.77;;;;;;;;;;2611459;54;20407;-74
2023/11/20 05:40:20;;;;;;;8.10;4.03;;;;;;;;;;2612071;54;20829;-73
2023/11/20 05:42:46;;;;;;;5.40;2.73;;;;;;;;;;2612185;54;20464;-74
2023/11/20 05:45:12;;;;;;;9.17;3.83;;;;;;;;;;2612384;54;20420;-74
2023/11/20 05:47:38;;;;;;;5.97;2.90;;;;;;;;;;2612211;54;20974;-74
2023/11/20 05:50:04;;;;;;;8.97;3.73;;;;;;;;;;2610726;54;20421;-74
2023/11/20 05:52:32;;;;;;;9.00;3.50;;;;;;;;;;2609525;46;20570;-75
2023/11/20 05:54:59;;;;;;;5.27;3.33;;;;;;;;;;2607953;54;20415;-73
2023/11/20 05:57:27;;;;;;;8.27;2.77;;;;;;;;;;2611715;54;20441;-74
2023/11/20 05:59:54;;;;;;;12.80;3.53;;;;;;;;;;2612833;54;20415;-74
2023/11/20 06:02:20;;;;;;;8.67;3.17;;;;;;;;;;2611782;39;20821;-74
2023/11/20 06:04:46;;;;;;;3.97;2.93;;;;;;;;;;2612039;54;20482;-73
2023/11/20 06:07:14;;;;;;;4.80;3.50;;;;;;;;;;2612230;46;20439;-73
2023/11/20 06:09:41;;;;;;;9.50;4.53;;;;;;;;;;2612258;54;20980;-73
2023/11/20 06:12:07;;;;;;;7.67;3.40;;;;;;;;;;2612073;54;20410;-72
2023/11/20 06:14:33;;;;;;;6.73;3.63;;;;;;;;;;2612156;54;20423;-74
2023/11/20 06:16:59;;;;;;;8.27;4.23;;;;;;;;;;2611973;54;20420;-73
2023/11/20 06:19:28;;;;;;;7.80;3.80;;;;;;;;;;2611420;54;20445;-74
2023/11/20 06:21:55;;;;;;;8.50;4.20;;;;;;;;;;2611522;47;20423;-73
2023/11/20 06:24:21;;;;;;;14.70;5.00;;;;;;;;;;2612158;39;20908;-74
2023/11/20 06:26:47;;;;;;;7.70;3.87;;;;;;;;;;2611543;54;20579;-74
2023/11/20 06:29:13;;;;;;;15.67;4.87;;;;;;;;;;2612357;54;20959;-74
2023/11/20 06:31:40;;;;;;;12.37;5.27;;;;;;;;;;2612349;54;20450;-73
2023/11/20 06:34:06;;;;;;;18.67;6.63;;;;;;;;;;2611798;54;20403;-73
2023/11/20 06:36:32;;;;;;;11.90;4.83;;;;;;;;;;2610580;47;20470;-73
2023/11/20 06:38:59;;;;;;;6.70;3.90;;;;;;;;;;2612512;54;20416;-73
2023/11/20 06:41:26;;;;;;;10.53;5.83;;;;;;;;;;2611721;54;20402;-74
2023/11/20 06:43:53;;;;;;;9.03;4.63;;;;;;;;;;2611668;54;20423;-72
2023/11/20 06:46:21;;;;;;;12.63;5.73;;;;;;;;;;2609903;50;20430;-73
2023/11/20 06:48:47;;;;;;;10.23;5.50;;;;;;;;;;2611202;54;20405;-72
2023/11/20 06:51:13;;;;;;;9.73;6.83;;;;;;;;;;2610231;54;20405;-73
2023/11/20 06:53:40;;;;;;;7.47;3.63;;;;;;;;;;2611379;47;20443;-73
2023/11/20 06:56:06;;;;;;;18.93;6.73;;;;;;;;;;2610483;54;20523;-74
2023/11/20 06:58:35;;;;;;;9.80;4.93;;;;;;;;;;2608903;54;20415;-73
2023/11/20 07:01:03;;;;;;;12.50;5.30;;;;;;;;;;2611948;39;21120;-73
2023/11/20 07:03:29;;;;;;;16.20;4.20;;;;;;;;;;2611308;54;20437;-73
2023/11/20 07:05:55;;;;;;;7.30;4.80;;;;;;;;;;2611238;54;20980;-74
2023/11/20 07:08:22;;;;;;;11.40;4.90;;;;;;;;;;2610863;54;20513;-73
2023/11/20 07:10:48;;;;;;;21.07;5.10;;;;;;;;;;2612311;54;20423;-73
2023/11/20 07:13:14;;;;;;;18.23;5.00;;;;;;;;;;2611533;54;20391;-74
2023/11/20 07:15:40;;;;;;;9.00;4.90;;;;;;;;;;2611631;54;21505;-72
2023/11/20 07:18:08;;;;;;;8.67;3.80;;;;;;;;;;2612037;39;20837;-76
2023/11/20 07:20:34;;;;;;;11.53;4.70;;;;;;;;;;2612767;54;20421;-78
2023/11/20 07:23:03;;;;;;;12.93;4.80;;;;;;;;;;2610878;46;20454;-74
2023/11/20 07:25:34;;;;;;;14.27;5.20;;;;;;;;;;2609245;54;21361;-74
2023/11/20 07:28:03;;;;;;;8.50;4.53;;;;;;;;;;2611478;54;20411;-75
2023/11/20 07:30:32;;;;;;;8.53;4.10;;;;;;;;;;2611248;47;20413;-73
2023/11/20 07:32:58;;;;;;;12.17;4.67;;;;;;;;;;2607451;46;20454;-75
2023/11/20 07:35:24;;;;;;;14.03;3.90;;;;;;;;;;2609858;39;20766;-74
2023/11/20 07:37:51;;;;;;;15.70;4.20;;;;;;;;;;2609479;54;20446;-75
2023/11/20 07:40:18;;;;;;;19.70;4.80;;;;;;;;;;2609015;54;20415;-75
2023/11/20 07:42:44;;;;;;;20.97;5.17;;;;;;;;;;2609106;54;21018;-76
2023/11/20 07:45:11;;;;;;;15.30;4.90;;;;;;;;;;2607883;54;20441;-75
2023/11/20 07:47:37;;;;;;;14.20;3.60;;;;;;;;;;2609422;47;20428;-76
2023/11/20 07:50:03;;;;;;;14.30;4.67;;;;;;;;;;2609676;54;20448;-76
2023/11/20 07:52:30;;;;;;;14.03;5.83;;;;;;;;;;2607960;54;20412;-76
2023/11/20 07:54:56;;;;;;;11.00;4.40;;;;;;;;;;2610211;54;21046;-75
2023/11/20 07:57:23;;;;;;;15.23;4.10;;;;;;;;;;2611345;39;20821;-76
2023/11/20 07:59:50;;;;;;;8.30;4.97;;;;;;;;;;2611573;54;20423;-75
2023/11/20 08:02:16;;;;;;;15.67;4.27;;;;;;;;;;2609728;54;20420;-76
2023/11/20 08:04:42;;;;;;;13.10;4.00;;;;;;;;;;2610353;54;20505;-76
2023/11/20 08:07:08;;;;;;;8.70;3.90;;;;;;;;;;2609947;54;20422;-75
2023/11/20 08:09:35;;;;;;;12.10;5.10;;;;;;;;;;2610514;47;20874;-77
2023/11/20 08:12:02;;;;;;;6.57;2.60;;;;;;;;;;2611781;54;20422;-76
2023/11/20 08:14:28;;;;;;;9.43;3.70;;;;;;;;;;2609699;47;20419;-75
2023/11/20 08:16:54;;;;;;;23.13;5.03;;;;;;;;;;2611699;54;20450;-75
2023/11/20 08:19:21;;;;;;;9.40;3.90;;;;;;;;;;2611610;54;20422;-75
2023/11/20 08:21:47;;;;;;;27.23;5.33;;;;;;;;;;2610109;47;21462;-75
2023/11/20 08:24:13;;;;;;;13.07;4.77;;;;;;;;;;2611298;54;20506;-75
2023/11/20 08:26:39;;;;;;;11.47;4.53;;;;;;;;;;2610011;47;20453;-75
2023/11/20 08:29:06;;;;;;;17.20;4.83;;;;;;;;;;2609298;54;20933;-76
2023/11/20 08:31:33;;;;;;;18.70;4.53;;;;;;;;;;2608806;54;20539;-76
2023/11/20 08:33:59;;;;;;;8.47;3.93;;;;;;;;;;2611252;54;20447;-75
2023/11/20 08:36:25;;;;;;;17.63;4.30;;;;;;;;;;2610746;54;20439;-75
2023/11/20 08:38:52;;;;;;;16.13;4.27;;;;;;;;;;2610682;54;20407;-73
2023/11/20 08:41:18;;;;;;;13.60;4.20;;;;;;;;;;2609670;54;21004;-75
2023/11/20 08:43:44;;;;;;;16.07;3.50;;;;;;;;;;2611300;54;20423;-76
2023/11/20 08:46:10;;;;;;;9.80;4.67;;;;;;;;;;2610141;47;21347;-74
2023/11/20 08:48:36;;;;;;;12.00;4.57;;;;;;;;;;2611072;54;20886;-74
2023/11/20 08:51:02;;;;;;;7.30;3.20;;;;;;;;;;2610235;47;20444;-76
2023/11/20 08:53:28;;;;;;;17.27;5.20;;;;;;;;;;2609787;54;20411;-73
2023/11/20 08:55:56;;;;;;;9.77;3.63;;;;;;;;;;2610246;47;20488;-74
2023/11/20 08:58:22;;;;;;;12.57;3.80;;;;;;;;;;2611401;54;20408;-75
2023/11/20 09:00:48;;;;;;;11.30;3.80;;;;;;;;;;2611968;54;20566;-76
2023/11/20 09:03:15;;;;;;;14.03;3.80;;;;;;;;;;2611519;54;20438;-77
2023/11/20 09:05:41;;;;;;;16.47;4.47;;;;;;;;;;2609924;39;20774;-75
2023/11/20 09:08:07;;;;;;;17.20;6.03;;;;;;;;;;2612177;54;20545;-76
2023/11/20 09:10:34;;;;;;;16.40;5.60;;;;;;;;;;2611860;54;20467;-75
2023/11/20 09:13:01;;;;;;;13.63;4.27;;;;;;;;;;2610797;54;20423;-74
2023/11/20 09:15:27;;;;;;;8.80;4.20;;;;;;;;;;2612247;54;20416;-75
2023/11/20 09:17:53;;;;;;;9.93;3.50;;;;;;;;;;2611209;54;20462;-76
2023/11/20 09:20:21;;;;;;;11.50;5.03;;;;;;;;;;2612838;54;20420;-76
2023/11/20 09:22:48;;;;;;;11.10;3.90;;;;;;;;;;2611794;46;20465;-76
2023/11/20 09:25:15;;;;;;;13.00;4.00;;;;;;;;;;2611716;54;20458;-76
2023/11/20 09:27:41;;;;;;;14.13;3.10;;;;;;;;;;2611974;54;20415;-76
2023/11/20 09:30:08;;;;;;;13.77;4.53;;;;;;;;;;2612491;54;20420;-76
2023/11/20 09:32:34;;;;;;;20.63;4.67;;;;;;;;;;2611874;54;20542;-76
2023/11/20 09:35:01;;;;;;;8.00;3.30;;;;;;;;;;2611353;39;20814;-78
2023/11/20 09:37:31;;;;;;;17.00;4.30;;;;;;;;;;2609412;54;20431;-77
2023/11/20 09:39:58;;;;;;;9.30;3.30;;;;;;;;;;2607603;54;20883;-74
2023/11/20 09:42:25;;;;;;;15.27;3.90;;;;;;;;;;2609768;39;20764;-74
2023/11/20 09:44:53;;;;;;;15.20;4.10;;;;;;;;;;2609261;54;20424;-77
2023/11/20 09:47:20;;;;;;;4.43;3.00;;;;;;;;;;2607974;54;20408;-81
2023/11/20 09:49:48;;;;;;;12.23;3.20;;;;;;;;;;2608430;47;20431;-75
2023/11/20 09:52:15;;;;;;;16.77;4.63;;;;;;;;;;2609676;54;20474;-75
2023/11/20 09:54:41;;;;;;;15.23;4.63;;;;;;;;;;2608189;46;20419;-75
2023/11/20 09:57:09;;;;;;;12.27;5.60;;;;;;;;;;2607770;54;21172;-76
2023/11/20 09:59:36;;;;;;;5.73;2.90;;;;;;;;;;2609389;47;20415;-76
2023/11/20 10:02:03;;;;;;;9.57;3.10;;;;;;;;;;2608541;39;20517;-75
2023/11/20 10:04:30;;;;;;;5.33;2.50;;;;;;;;;;2608144;47;20414;-76
2023/11/20 10:06:58;;;;;;;9.13;3.90;;;;;;;;;;2607964;47;20419;-74
2023/11/20 10:09:25;;;;;;;6.20;3.50;;;;;;;;;;2607294;39;20791;-75
2023/11/20 10:11:53;;;;;;;9.13;4.23;;;;;;;;;;2607399;54;20963;-74
2023/11/20 10:14:19;;;;;;;13.37;3.33;;;;;;;;;;2608232;54;20408;-74
2023/11/20 10:16:50;;;;;;;17.77;4.63;;;;;;;;;;2607066;47;20966;-76
2023/11/20 10:19:16;;;;;;;13.27;4.60;;;;;;;;;;2607763;54;21045;-75
2023/11/20 10:21:42;;;;;;;13.50;5.70;;;;;;;;;;2608240;54;20418;-75
2023/11/20 10:24:11;;;;;;;11.23;3.60;;;;;;;;;;2608769;39;20822;-74
2023/11/20 10:26:41;;;;;;;9.33;2.83;;;;;;;;;;2607089;54;21025;-75
2023/11/20 10:29:10;;;;;;;5.20;2.43;;;;;;;;;;2607811;54;20402;-75
2023/11/20 10:31:43;;;;;;;12.20;4.20;;;;;;;;;;2607127;54;20454;-75
2023/11/20 10:34:09;;;;;;;12.30;3.70;;;;;;;;;;2606925;54;20431;-75
2023/11/20 10:36:36;;;;;;;10.30;4.20;;;;;;;;;;2608410;54;20487;-75
2023/11/20 10:39:03;;;;;;;9.33;3.00;;;;;;;;;;2607189;54;21017;-74
2023/11/20 10:41:29;;;;;;;7.87;3.40;;;;;;;;;;2607659;54;20519;-74
2023/11/20 10:43:59;;;;;;;10.87;4.93;;;;;;;;;;2607165;54;20434;-75
2023/11/20 10:46:25;;;;;;;10.30;4.23;;;;;;;;;;2610133;54;20991;-74
2023/11/20 10:48:52;;;;;;;6.93;3.63;;;;;;;;;;2611137;54;20411;-75
2023/11/20 10:51:23;;;;;;;7.60;3.57;;;;;;;;;;2609980;51;21056;-76
2023/11/20 10:53:55;;;;;;;3.13;2.20;;;;;;;;;;2607866;54;20423;-76
2023/11/20 10:56:22;;;;;;;12.57;3.77;;;;;;;;;;2610193;54;20495;-73
2023/11/20 10:58:49;;;;;;;4.93;2.70;;;;;;;;;;2610893;47;20989;-75
2023/11/20 11:01:16;;;;;;;10.07;3.07;;;;;;;;;;2610474;54;20417;-76
2023/11/20 11:03:43;;;;;;;7.40;2.43;;;;;;;;;;2611361;46;20443;-75
2023/11/20 11:06:10;;;;;;;2.30;2.00;;;;;;;;;;2611605;54;20542;-75
2023/11/20 11:08:43;;;;;;;7.90;2.60;;;;;;;;;;2610847;54;20399;-74
2023/11/20 11:11:10;;;;;;;4.83;2.00;;;;;;;;;;2606916;47;20420;-73
2023/11/20 11:13:36;;;;;;;7.50;3.87;;;;;;;;;;2608472;47;20482;-75
2023/11/20 11:16:07;;;;;;;9.27;2.47;;;;;;;;;;2608606;39;20856;-76
2023/11/20 11:18:34;;;;;;;4.13;2.13;;;;;;;;;;2608941;47;20419;-75
2023/11/20 11:21:03;;;;;;;8.23;3.60;;;;;;;;;;2607777;54;20502;-74
2023/11/20 11:23:40;;;;;;;13.47;3.80;;;;;;;;;;2608599;54;20411;-75
2023/11/20 11:26:10;;;;;;;6.23;2.70;;;;;;;;;;2609752;54;20550;-76
2023/11/20 11:28:38;;;;;;;5.93;2.97;;;;;;;;;;2608645;54;20437;-75
2023/11/20 11:31:04;;;;;;;4.80;3.00;;;;;;;;;;2608152;54;20427;-74
2023/11/20 11:33:42;;;;;;;14.57;3.97;;;;;;;;;;2608814;54;20416;-77
2023/11/20 11:36:21;;;;;;;6.10;2.60;;;;;;;;;;2609846;54;20507;-73
2023/11/20 11:38:47;;;;;;;5.53;3.10;;;;;;;;;;2609801;54;20416;-73
2023/11/20 11:41:24;;;;;;;7.33;3.20;;;;;;;;;;2611904;54;20507;-74
2023/11/20 11:44:15;;;;;;;6.50;2.27;;;;;;;;;;2612263;54;21366;-75
2023/11/20 11:46:43;;;;;;;5.93;2.43;;;;;;;;;;2611311;54;20440;-75
2023/11/20 11:49:23;;;;;;;7.03;3.73;;;;;;;;;;2611619;54;20503;-74
2023/11/20 11:51:57;;;;;;;9.97;3.60;;;;;;;;;;2610122;47;21043;-74
2023/11/20 11:54:24;;;;;;;11.77;3.47;;;;;;;;;;2611244;54;20969;-74
2023/11/20 11:56:50;;;;;;;5.73;2.07;;;;;;;;;;2611886;54;20407;-75
2023/11/20 11:59:51;;;;;;;6.30;2.90;;;;;;;;;;2610994;54;20544;-76
2023/11/20 12:02:20;;;;;;;7.10;2.50;;;;;;;;;;2609697;54;20438;-73
2023/11/20 12:04:55;;;;;;;25.77;4.60;;;;;;;;;;2608312;54;20423;-74
2023/11/20 12:07:40;;;;;;;10.47;3.60;;;;;;;;;;2610610;47;20452;-78
2023/11/20 12:10:11;;;;;;;6.90;3.10;;;;;;;;;;2612027;54;20471;-76
2023/11/20 12:12:54;;;;;;;2.90;2.20;;;;;;;;;;2612289;54;20449;-78
2023/11/20 12:15:37;;;;;;;9.10;2.77;;;;;;;;;;2611864;54;20763;-77
2023/11/20 12:18:24;;;;;;;4.77;2.43;;;;;;;;;;2612434;54;20423;-77
2023/11/20 12:20:54;;;;;;;4.17;2.40;;;;;;;;;;2612246;54;20464;-76
2023/11/20 12:23:31;;;;;;;8.20;2.67;;;;;;;;;;2611611;46;20467;-77
2023/11/20 12:25:58;;;;;;;4.30;2.03;;;;;;;;;;2612448;39;20970;-78
2023/11/20 12:28:25;;;;;;;4.73;2.33;;;;;;;;;;2610793;47;20428;-75
2023/11/20 12:30:52;;;;;;;3.90;1.63;;;;;;;;;;2611194;39;20758;-74
2023/11/20 12:33:18;;;;;;;5.67;1.70;;;;;;;;;;2609545;54;20426;-74
2023/11/20 12:35:50;;;;;;;3.53;1.90;;;;;;;;;;2610652;46;20431;-75
2023/11/20 12:38:16;;;;;;;10.83;2.93;;;;;;;;;;2611591;54;21021;-75
2023/11/20 12:40:43;;;;;;;6.70;1.90;;;;;;;;;;2610960;47;20422;-75
2023/11/20 12:43:10;;;;;;;4.17;2.13;;;;;;;;;;2611762;54;20419;-75
2023/11/20 12:45:38;;;;;;;5.63;1.80;;;;;;;;;;2611392;54;21335;-75
2023/11/20 12:48:04;;;;;;;6.93;3.10;;;;;;;;;;2609003;54;20976;-73
2023/11/20 12:50:30;;;;;;;5.40;2.57;;;;;;;;;;2609453;54;20427;-73
2023/11/20 12:52:57;;;;;;;5.13;2.70;;;;;;;;;;2608210;47;20567;-74
2023/11/20 12:55:23;;;;;;;6.80;2.83;;;;;;;;;;2607883;54;20417;-74
2023/11/20 12:57:53;;;;;;;3.10;2.50;;;;;;;;;;2610574;54;20403;-75
2023/11/20 13:00:20;;;;;;;4.47;2.13;;;;;;;;;;2609318;54;20415;-75
2023/11/20 13:03:00;;;;;;;4.70;2.43;;;;;;;;;;2609287;54;20427;-75
2023/11/20 13:05:30;;;;;;;9.17;4.23;;;;;;;;;;2610267;54;20396;-73
2023/11/20 13:08:00;;;;;;;8.73;2.87;;;;;;;;;;2610197;54;21045;-74
2023/11/20 13:10:27;;;;;;;4.50;2.60;;;;;;;;;;2610337;54;20458;-74
2023/11/20 13:12:53;;;;;;;2.57;2.37;;;;;;;;;;2612202;54;20379;-74
2023/11/20 13:15:26;;;;;;;3.20;2.90;;;;;;;;;;2609658;47;20424;-73
2023/11/20 13:17:53;;;;;;;4.00;2.17;;;;;;;;;;2608389;54;20495;-75
2023/11/20 13:20:40;;;;;;;3.67;2.33;;;;;;;;;;2610705;54;20590;-76
2023/11/20 13:23:06;;;;;;;5.17;2.67;;;;;;;;;;2609709;54;20407;-74
2023/11/20 13:25:32;;;;;;;3.57;2.30;;;;;;;;;;2607214;47;20455;-73
2023/11/20 13:27:58;;;;;;;8.33;3.23;;;;;;;;;;2608672;54;20515;-74
2023/11/20 13:30:25;;;;;;;4.73;2.23;;;;;;;;;;2608034;54;20419;-74
2023/11/20 13:32:51;;;;;;;8.13;3.40;;;;;;;;;;2607556;39;20930;-74
2023/11/20 13:35:17;;;;;;;5.97;2.93;;;;;;;;;;2607416;54;20434;-74
2023/11/20 13:37:46;;;;;;;3.10;2.60;;;;;;;;;;2609473;54;20896;-76
2023/11/20 13:40:12;;;;;;;3.70;1.97;;;;;;;;;;2612664;54;20437;-76
2023/11/20 13:42:39;;;;;;;3.17;2.37;;;;;;;;;;2611895;46;20447;-77
2023/11/20 13:45:05;;;;;;;3.13;2.70;;;;;;;;;;2612777;54;20427;-77
2023/11/20 13:47:35;;;;;;;3.37;2.50;;;;;;;;;;2613015;47;20593;-76
2023/11/20 13:50:04;;;;;;;4.53;3.43;;;;;;;;;;2613699;39;20790;-76
2023/11/20 13:52:31;;;;;;;2.60;2.23;;;;;;;;;;2614359;54;20458;-76
2023/11/20 13:54:57;;;;;;;3.33;2.50;;;;;;;;;;2612943;54;20433;-75
2023/11/20 13:57:24;;;;;;;2.47;2.20;;;;;;;;;;2613413;54;20946;-76
2023/11/20 13:59:51;;;;;;;5.37;2.77;;;;;;;;;;2613238;46;20451;-76
2023/11/20 14:02:19;;;;;;;5.90;3.00;;;;;;;;;;2614185;39;20829;-77
2023/11/20 14:04:47;;;;;;;2.57;2.03;;;;;;;;;;2613849;54;20422;-75
2023/11/20 14:07:16;;;;;;;6.53;2.57;;;;;;;;;;2613508;54;20997;-75
2023/11/20 14:09:44;;;;;;;6.30;2.80;;;;;;;;;;2612633;54;20420;-76
2023/11/20 14:12:14;;;;;;;6.20;3.07;;;;;;;;;;2613925;54;20535;-76
2023/11/20 14:14:40;;;;;;;6.60;1.93;;;;;;;;;;2612949;47;20423;-75
2023/11/20 14:17:15;;;;;;;13.40;2.57;;;;;;;;;;2614191;54;20537;-75
2023/11/20 14:19:52;;;;;;;3.80;2.33;;;;;;;;;;2615172;54;20419;-76
2023/11/20 14:22:19;;;;;;;7.60;2.53;;;;;;;;;;2614259;54;20449;-76
2023/11/20 14:24:45;;;;;;;6.00;2.40;;;;;;;;;;2615123;54;20419;-76
2023/11/20 14:27:12;;;;;;;3.50;2.70;;;;;;;;;;2613878;39;23147;-76
2023/11/20 14:29:40;;;;;;;5.30;2.90;;;;;;;;;;2613100;54;20412;-75
2023/11/20 14:32:06;;;;;;;5.27;2.10;;;;;;;;;;2613037;47;20527;-75
2023/11/20 14:34:32;;;;;;;3.80;2.30;;;;;;;;;;2612999;46;20457;-75
2023/11/20 14:37:00;;;;;;;6.40;2.60;;;;;;;;;;2613525;54;20423;-75
2023/11/20 14:39:26;;;;;;;9.53;2.50;;;;;;;;;;2612869;47;20483;-77